Latest Weather Observations for Norah Head

IDN60801

Issued at 4:22 pm EDT Friday 16 November 2018 (issued every 10 minutes, with the page automatically refreshed every 10 minutes)

About weather observations | Map of weather stations | Latest weather observations for NSW | Other Formats
Station Details ID: 061366 Name: NORAH HEAD AWS Lat: -33.28 Lon: 151.58 Height: 18.8 m
Data from the previous 72 hours. | See also: Recent months at Norah Head
Date/Time
EDT
Temp
°C
App
Temp
°C
Dew
Point
°C
Rel
Hum
%
Delta-T
°C
Wind Press
QNH
hPa
Press
MSL
hPa
Rain since
9am
mm
Dir  Spd
km/h
Gust
km/h
Spd
kts
Gust
kts
16/04:00pm 19.6 18.0 16.6 83 1.8 SSW 20 26 11 14 1018.2 1018.1 1.0
16/03:30pm 19.1 16.9 16.0 82 1.8 SSW 22 30 12 16 1018.4 1018.3 1.0
16/03:00pm 19.8 18.3 16.8 83 1.8 SSW 20 28 11 15 1018.8 1018.7 1.0
16/02:30pm 18.9 16.8 16.1 84 1.7 SSW 22 30 12 16 1019.1 1019.0 1.0
16/02:00pm 18.9 16.7 16.9 88 1.2 SSW 24 30 13 16 1019.4 1019.3 1.0
16/01:30pm 18.6 16.7 16.6 88 1.2 SSW 22 32 12 17 1019.7 1019.6 1.0
16/01:00pm 18.9 17.5 16.9 88 1.2 SSW 20 30 11 16 1019.9 1019.8 1.0
16/12:30pm 18.5 17.2 17.2 92 0.8 SSW 20 30 11 16 1020.2 1020.1 1.0
16/12:00pm 17.8 15.9 16.7 93 0.7 SSW 22 32 12 17 1020.5 1020.4 1.0
16/11:30am 18.0 17.8 16.7 92 0.8 SSW 13 19 7 10 1020.8 1020.7 1.0
16/11:00am 17.4 17.1 16.4 94 0.6 SW 13 17 7 9 1020.9 1020.8 1.0
16/10:30am 17.5 18.1 16.9 96 0.4 SSW 9 13 5 7 1021.0 1020.9 1.0
16/10:00am 17.0 14.8 16.8 99 0.1 S 24 30 13 16 1020.9 1020.8 0.8
16/09:30am 16.9 17.3 16.4 97 0.3 SW 9 24 5 13 1020.9 1020.8 0.0
16/09:00am 16.6 16.4 15.8 95 0.5 SW 11 17 6 9 1021.0 1020.9 9.6
16/08:30am 17.0 16.6 15.3 90 1.0 SW 11 19 6 10 1021.1 1021.0 9.4
16/08:00am 16.9 15.5 14.5 86 1.4 SW 15 20 8 11 1020.8 1020.7 9.4
16/07:30am 16.8 16.6 14.8 88 1.2 WSW 9 15 5 8 1020.9 1020.8 9.4
16/07:00am 17.7 14.5 14.2 80 2.0 S 24 33 13 18 1020.4 1020.3 9.4
16/06:30am 17.7 14.6 14.4 81 1.9 SSW 24 32 13 17 1020.4 1020.3 9.4
16/06:00am 17.7 12.8 13.8 78 2.2 S 32 39 17 21 1020.3 1020.2 9.4
16/05:30am 17.6 13.0 14.5 82 1.8 S 32 39 17 21 1020.0 1019.9 9.4
16/05:00am 17.8 13.3 14.9 83 1.7 S 32 39 17 21 1019.9 1019.8 9.4
16/04:30am 17.4 13.5 14.3 82 1.8 S 28 37 15 20 1019.9 1019.8 9.4
16/04:00am 17.8 13.5 14.5 81 1.9 S 30 37 16 20 1019.9 1019.8 9.4
16/03:30am 17.6 12.6 13.9 79 2.1 S 33 41 18 22 1020.1 1020.0 9.4
16/03:00am 17.5 12.3 14.4 82 1.8 S 35 43 19 23 1020.3 1020.2 9.4
16/02:30am 17.4 11.6 14.9 85 1.4 S 39 46 21 25 1020.3 1020.2 9.4
16/02:00am 17.4 12.0 15.0 86 1.4 S 37 44 20 24 1020.7 1020.6 9.4
16/01:30am 17.4 12.6 15.7 90 1.0 S 35 46 19 25 1020.9 1020.8 9.4
16/01:00am 17.8 12.4 16.0 89 1.1 S 39 46 21 25 1021.0 1020.9 9.4
16/12:30am 17.6 13.6 16.1 91 0.9 S 32 39 17 21 1021.3 1021.2 9.4
16/12:00am 17.2 12.4 16.6 96 0.4 S 37 43 20 23 1021.7 1021.6 9.4
 
Date/Time
EDT
Temp
°C
App
Temp
°C
Dew
Point
°C
Rel
Hum
%
Delta-T
°C
Wind Press
QNH
hPa
Press
MSL
hPa
Rain since
9am
mm
Dir  Spd
km/h
Gust
km/h
Spd
kts
Gust
kts
15/11:30pm 17.1 14.2 17.1 100 0.0 S 28 32 15 17 1022.2 1022.1 9.4
15/11:00pm 16.9 12.2 16.9 100 0.0 S 37 44 20 24 1022.2 1022.1 9.2
15/10:30pm 16.8 11.7 16.8 100 0.0 S 39 46 21 25 1022.1 1022.0 7.4
15/10:00pm 16.9 12.2 16.9 100 0.0 S 37 44 20 24 1022.3 1022.2 6.2
15/09:30pm 17.3 12.8 17.3 100 0.0 S 37 46 20 25 1022.0 1021.9 1.4
15/09:00pm 17.6 12.7 17.4 99 0.1 S 39 48 21 26 1021.4 1021.3 0.6
15/08:30pm 18.0 11.7 16.2 89 1.1 S 44 54 24 29 1020.9 1020.8 0.2
15/08:00pm 18.2 13.1 16.7 91 0.9 S 39 48 21 26 1020.8 1020.7 0.2
15/07:30pm 18.3 12.6 17.3 94 0.6 S 43 48 23 26 1020.4 1020.3 0.2
15/07:00pm 18.4 12.7 17.6 95 0.5 S 44 54 24 29 1019.8 1019.7 0.2
15/06:30pm 18.8 12.7 16.6 87 1.3 S 44 54 24 29 1018.9 1018.8 0.2
15/06:00pm 18.8 12.4 16.8 88 1.2 S 46 54 25 29 1018.9 1018.8 0.2
15/05:30pm 18.8 13.1 17.3 91 0.9 S 43 50 23 27 1018.7 1018.6 0.2
15/05:00pm 18.5 12.8 17.7 95 0.5 S 44 54 24 29 1018.4 1018.3 0.2
15/04:30pm 18.4 13.6 18.4 100 0.0 S 41 50 22 27 1018.6 1018.5 0.2
15/04:00pm 18.9 15.3 18.6 98 0.2 S 35 46 19 25 1018.3 1018.2 0.2
15/03:30pm 19.5 15.4 18.3 93 0.7 S 37 44 20 24 1017.8 1017.7 0.2
15/03:00pm 20.1 15.7 18.4 90 1.1 S 39 44 21 24 1017.8 1017.7 0.2
15/02:30pm 20.3 17.5 18.1 87 1.4 S 30 37 16 20 1018.1 1018.0 0.2
15/02:00pm 20.8 18.8 18.4 86 1.5 S 26 32 14 17 1018.4 1018.3 0.2
15/01:30pm 21.9 19.4 18.9 83 1.9 S 30 33 16 18 1018.1 1018.0 0.2
15/01:00pm 22.3 21.1 19.3 83 1.9 S 24 30 13 16 1018.3 1018.2 0.2
15/12:30pm 22.2 20.7 19.4 84 1.8 S 26 30 14 16 1018.4 1018.3 0.2
15/12:00pm 21.9 20.8 19.5 86 1.5 SSW 24 30 13 16 1018.7 1018.6 0.0
15/11:30am 21.5 19.5 19.1 86 1.5 SSW 28 32 15 17 1018.8 1018.7 0.0
15/11:00am 21.0 19.6 18.9 88 1.3 SSW 24 32 13 17 1018.7 1018.6 0.0
15/10:30am 20.4 18.7 18.9 91 0.9 SSW 26 30 14 16 1018.6 1018.5 0.0
15/10:00am 19.9 17.7 18.6 92 0.8 SSW 28 35 15 19 1018.3 1018.2 0.0
15/09:30am 19.4 17.1 18.4 94 0.6 SSW 28 37 15 20 1018.2 1018.1 0.0
15/09:00am 19.2 16.1 18.4 95 0.5 SSW 32 43 17 23 1017.8 1017.7 0.2
15/08:30am 20.4 18.1 18.5 89 1.2 SSW 28 37 15 20 1017.4 1017.3 0.2
15/08:26am 20.4 18.0 18.2 87 1.4 S 28 35 15 19 1017.3 1017.2 0.2
15/08:00am 21.8 22.4 17.8 78 2.5 SSW 11 13 6 7 1016.9 1016.8 0.2
15/07:30am 21.4 22.5 17.2 77 2.6 SSW 7 11 4 6 1016.4 1016.3 0.2
15/07:00am 20.4 21.6 16.8 80 2.2 SW 6 9 3 5 1015.9 1015.8 0.2
15/06:30am 19.4 20.9 16.6 84 1.7 SE 4 7 2 4 1015.6 1015.5 0.2
15/06:00am 18.6 20.5 17.6 94 0.6 SE 4 6 2 3 1015.1 1015.0 0.2
15/05:30am 18.7 21.3 17.4 92 0.8 CALM 0 4 0 2 1014.8 1014.7 0.2
15/05:00am 18.7 20.7 16.9 89 1.1 NW 2 4 1 2 1014.4 1014.3 0.2
15/04:30am 19.2 20.5 17.0 87 1.3 WNW 6 9 3 5 1014.2 1014.1 0.2
15/04:00am 19.4 20.8 17.9 91 0.9 NW 7 11 4 6 1014.2 1014.1 0.2
15/03:30am 19.1 20.5 17.9 93 0.7 NW 7 11 4 6 1014.2 1014.1 0.2
15/03:00am 19.2 20.9 18.4 95 0.5 NW 7 9 4 5 1014.3 1014.2 0.2
15/02:30am 19.0 20.6 18.3 96 0.4 NW 7 9 4 5 1014.3 1014.2 0.2
15/02:00am 19.1 20.4 18.4 96 0.4 NW 9 11 5 6 1014.5 1014.4 0.0
15/01:30am 19.4 21.0 19.1 98 0.2 NNW 9 9 5 5 1014.9 1014.8 0.0
15/01:00am 19.2 21.0 18.7 97 0.3 NNW 7 9 4 5 1015.1 1015.0 0.0
15/12:30am 19.6 20.7 18.9 96 0.4 N 11 11 6 6 1015.2 1015.1 0.0
15/12:00am 19.7 21.5 18.7 94 0.6 N 7 9 4 5 1015.5 1015.4 0.0
 
Date/Time
EDT
Temp
°C
App
Temp
°C
Dew
Point
°C
Rel
Hum
%
Delta-T
°C
Wind Press
QNH
hPa
Press
MSL
hPa
Rain since
9am
mm
Dir  Spd
km/h
Gust
km/h
Spd
kts
Gust
kts
14/11:30pm 20.0 21.8 18.8 93 0.8 N 7 9 4 5 1015.8 1015.7 0.0
14/11:00pm 19.4 21.3 18.6 95 0.5 NNW 6 7 3 4 1016.0 1015.9 0.0
14/10:30pm 19.7 21.5 18.2 91 0.9 NNE 6 9 3 5 1016.0 1015.9 0.0
14/10:00pm 20.4 22.9 18.2 87 1.4 N 2 4 1 2 1016.1 1016.0 0.0
14/09:30pm 20.7 22.3 18.3 86 1.5 NNW 7 9 4 5 1015.9 1015.8 0.0
14/09:00pm 20.8 22.0 18.2 85 1.6 N 9 13 5 7 1015.6 1015.5 0.0
14/08:30pm 20.4 20.8 18.2 87 1.4 NNW 13 15 7 8 1015.6 1015.5 0.0
14/08:00pm 19.6 21.6 19.1 97 0.3 NNE 7 9 4 5 1015.4 1015.3 0.0
14/07:30pm 19.6 21.2 19.1 97 0.3 N 9 13 5 7 1015.3 1015.2 0.0
14/07:00pm 19.6 21.5 18.9 96 0.4 NE 7 9 4 5 1015.1 1015.0 0.0
14/06:30pm 19.9 21.7 18.4 91 0.9 N 6 7 3 4 1015.1 1015.0 0.0
14/06:00pm 20.3 22.1 18.4 89 1.2 N 6 6 3 3 1015.0 1014.9 0.0
14/05:30pm 20.3 22.5 18.4 89 1.2 NNE 4 6 2 3 1015.0 1014.9 0.0
14/05:00pm 20.1 21.7 18.2 89 1.2 N 7 9 4 5 1015.0 1014.9 0.0
14/04:30pm 20.3 20.8 18.4 89 1.2 NNE 13 15 7 8 1014.9 1014.8 0.0
14/04:00pm 20.9 22.2 18.5 86 1.5 ENE 9 13 5 7 1014.7 1014.6 0.0
14/03:30pm 20.5 21.2 17.9 85 1.6 NE 11 13 6 7 1015.0 1014.9 0.0
14/03:00pm 21.7 22.2 18.3 81 2.1 ENE 13 15 7 8 1015.0 1014.9 0.0
14/02:30pm 21.6 22.7 18.0 80 2.2 E 9 9 5 5 1015.5 1015.4 0.0
14/02:00pm 21.4 23.5 18.0 81 2.1 SE 4 6 2 3 1015.7 1015.6 0.0
14/01:30pm 20.8 22.8 17.8 83 1.9 SE 4 7 2 4 1015.9 1015.8 0.0
14/01:00pm 20.3 21.5 17.3 83 1.8 ESE 7 11 4 6 1016.1 1016.0 0.0
14/12:30pm 20.5 21.0 17.5 83 1.8 E 11 13 6 7 1016.6 1016.5 0.0
14/12:00pm 20.5 22.4 17.7 84 1.7 SSE 4 9 2 5 1016.3 1016.2 0.0
14/11:30am 20.2 22.2 17.0 82 1.9 SE 2 4 1 2 1016.9 1016.8 0.0
14/11:00am 20.8 23.2 17.0 79 2.3 CALM 0 2 0 1 1016.9 1016.8 0.0
14/10:30am 21.1 22.7 16.9 77 2.6 ENE 4 6 2 3 1016.5 1016.4 0.0
14/10:00am 20.9 22.6 17.1 79 2.3 SE 4 7 2 4 1016.6 1016.5 0.0
14/09:30am 20.3 21.7 16.5 79 2.3 WNW 4 9 2 5 1016.7 1016.6 0.0
14/09:00am 20.3 21.3 16.9 81 2.1 WNW 7 13 4 7 1016.8 1016.7 0.0
14/08:30am 19.4 19.5 16.6 84 1.7 N 11 13 6 7 1016.1 1016.0 0.0
14/08:00am 19.5 19.3 17.5 88 1.2 N 15 17 8 9 1015.8 1015.7 0.0
14/07:30am 19.2 18.9 17.3 89 1.2 NNE 15 19 8 10 1015.6 1015.5 0.0
14/07:00am 19.1 18.3 17.1 88 1.2 NNE 17 19 9 10 1015.3 1015.2 0.0
14/06:30am 18.6 18.1 16.9 90 1.0 NNE 15 17 8 9 1015.2 1015.1 0.0
14/06:00am 18.3 18.1 16.6 90 1.0 NNE 13 15 7 8 1014.8 1014.7 0.0
14/05:30am 18.1 18.2 16.4 90 1.0 N 11 13 6 7 1014.5 1014.4 0.0
14/05:00am 18.1 18.5 16.3 89 1.1 NNE 9 11 5 6 1014.3 1014.2 0.0
14/04:30am 18.3 18.7 16.3 88 1.2 N 9 13 5 7 1014.4 1014.3 0.0
14/04:00am 18.6 18.7 16.4 87 1.3 N 11 13 6 7 1014.5 1014.4 0.0
14/03:30am 18.6 18.7 16.4 87 1.3 N 11 17 6 9 1014.5 1014.4 0.0
14/03:00am 18.7 18.5 16.7 88 1.2 N 13 17 7 9 1014.6 1014.5 0.0
14/02:30am 18.8 16.9 16.6 87 1.3 N 22 28 12 15 1014.6 1014.5 0.0
14/02:00am 19.2 15.2 16.8 86 1.4 NNE 33 37 18 20 1014.6 1014.5 0.0
14/01:30am 19.4 14.8 17.0 86 1.5 NNE 37 43 20 23 1014.8 1014.7 0.0
14/01:00am 19.4 14.7 16.8 85 1.6 NNE 37 43 20 23 1015.2 1015.1 0.0
14/12:30am 19.6 14.6 17.0 85 1.6 NNE 39 46 21 25 1015.3 1015.2 0.0
14/12:00am 19.6 14.6 17.0 85 1.6 NNE 39 46 21 25 1015.7 1015.6 0.0
 
Date/Time
EDT
Temp
°C
App
Temp
°C
Dew
Point
°C
Rel
Hum
%
Delta-T
°C
Wind Press
QNH
hPa
Press
MSL
hPa
Rain since
9am
mm
Dir  Spd
km/h
Gust
km/h
Spd
kts
Gust
kts
13/11:30pm 19.6 15.6 17.6 88 1.2 NNE 35 39 19 21 1016.0 1015.9 0.0
13/11:00pm 19.7 15.7 17.7 88 1.2 NNE 35 41 19 22 1016.0 1015.9 0.0
13/10:30pm 19.8 15.9 17.8 88 1.2 NNE 35 41 19 22 1016.2 1016.1 0.0
13/10:00pm 20.1 15.0 17.7 86 1.5 NNE 41 48 22 26 1016.4 1016.3 0.0
13/09:30pm 20.1 14.0 17.7 86 1.5 NE 46 56 25 30 1016.1 1016.0 0.0
13/09:00pm 20.1 13.7 17.7 86 1.5 NE 48 56 26 30 1015.9 1015.8 0.0
13/08:30pm 20.2 14.2 17.8 86 1.5 NE 46 56 25 30 1016.0 1015.9 0.0
13/08:00pm 20.1 14.4 17.7 86 1.5 NE 44 52 24 28 1015.9 1015.8 0.0
13/07:30pm 20.3 14.9 17.9 86 1.5 NE 43 56 23 30 1016.2 1016.1 0.0
13/07:00pm 20.4 15.3 17.8 85 1.6 NE 41 52 22 28 1016.1 1016.0 0.0
13/06:30pm 20.6 15.0 17.8 84 1.7 NE 44 56 24 30 1015.7 1015.6 0.0
13/06:00pm 21.3 15.9 17.9 81 2.1 NE 43 52 23 28 1015.3 1015.2 0.0
13/05:30pm 21.8 16.4 18.0 79 2.4 NE 43 52 23 28 1015.4 1015.3 0.0
13/05:00pm 22.4 17.5 18.2 77 2.6 NE 41 54 22 29 1015.7 1015.6 0.0
13/04:30pm 22.4 16.8 17.5 74 3.0 NE 43 52 23 28 1015.6 1015.5 0.0

Other Formats:

Comma delimited format used in spreadsheet applications
http://www.bom.gov.au/fwo/IDN60801/IDN60801.95770.axf

JavaScript Object Notation format (JSON) in row-major order
http://www.bom.gov.au/fwo/IDN60801/IDN60801.95770.json